地図

経路データ

SID SEASON NUMBER BASIN SUBBASIN NAME ISO_TIME NATURE LAT LON WMO_WIND WMO_PRES WMO_AGENCY TRACK_TYPE DIST2LAND LANDFALL IFLAG USA_AGENCY USA_ATCF_ID USA_LAT USA_LON USA_RECORD USA_STATUS USA_WIND USA_PRES USA_SSHS USA_R34_NE USA_R34_SE USA_R34_SW USA_R34_NW USA_R50_NE USA_R50_SE USA_R50_SW USA_R50_NW USA_R64_NE USA_R64_SE USA_R64_SW USA_R64_NW USA_POCI USA_ROCI USA_RMW USA_EYE TOKYO_LAT TOKYO_LON TOKYO_GRADE TOKYO_WIND TOKYO_PRES TOKYO_R50_DIR TOKYO_R50_LONG TOKYO_R50_SHORT TOKYO_R30_DIR TOKYO_R30_LONG TOKYO_R30_SHORT TOKYO_LAND CMA_LAT CMA_LON CMA_CAT CMA_WIND CMA_PRES HKO_LAT HKO_LON HKO_CAT HKO_WIND HKO_PRES NEWDELHI_LAT NEWDELHI_LON NEWDELHI_GRADE NEWDELHI_WIND NEWDELHI_PRES NEWDELHI_CI NEWDELHI_DP NEWDELHI_POCI REUNION_LAT REUNION_LON REUNION_TYPE REUNION_WIND REUNION_PRES REUNION_TNUM REUNION_CI REUNION_RMW REUNION_R34_NE REUNION_R34_SE REUNION_R34_SW REUNION_R34_NW REUNION_R50_NE REUNION_R50_SE REUNION_R50_SW REUNION_R50_NW REUNION_R64_NE REUNION_R64_SE REUNION_R64_SW REUNION_R64_NW BOM_LAT BOM_LON BOM_TYPE BOM_WIND BOM_PRES BOM_TNUM BOM_CI BOM_RMW BOM_R34_NE BOM_R34_SE BOM_R34_SW BOM_R34_NW BOM_R50_NE BOM_R50_SE BOM_R50_SW BOM_R50_NW BOM_R64_NE BOM_R64_SE BOM_R64_SW BOM_R64_NW BOM_ROCI BOM_POCI BOM_EYE BOM_POS_METHOD BOM_PRES_METHOD NADI_LAT NADI_LON NADI_CAT NADI_WIND NADI_PRES WELLINGTON_LAT WELLINGTON_LON WELLINGTON_WIND WELLINGTON_PRES DS824_LAT DS824_LON DS824_STAGE DS824_WIND DS824_PRES TD9636_LAT TD9636_LON TD9636_STAGE TD9636_WIND TD9636_PRES TD9635_LAT TD9635_LON TD9635_WIND TD9635_PRES TD9635_ROCI NEUMANN_LAT NEUMANN_LON NEUMANN_CLASS NEUMANN_WIND NEUMANN_PRES MLC_LAT MLC_LON MLC_CLASS MLC_WIND MLC_PRES USA_GUST BOM_GUST BOM_GUST_PER REUNION_GUST REUNION_GUST_PER USA_SEAHGT USA_SEARAD_NE USA_SEARAD_SE USA_SEARAD_SW USA_SEARAD_NW STORM_SPEED STORM_DIR
1996261N08184 1996 86 EP CP YATES 1996-09-17 06:00:00 NR 8.00000 184.300 main 2314 2314 O_____________ jtwc_wp WP281996 8.00000 -175.700 15 -1 12 275
1996261N08184 1996 86 EP CP YATES 1996-09-17 09:00:00 NR 8.05016 183.708 main 2354 2354 P_____________ WP281996 8.05016 -176.292 15 -1 12 275
1996261N08184 1996 86 EP CP YATES 1996-09-17 12:00:00 NR 8.10000 183.100 main 2402 2402 O_____________ jtwc_wp WP281996 8.10000 -176.900 15 -1 12 275
1996261N08184 1996 86 EP CP YATES 1996-09-17 15:00:00 NR 8.14989 182.465 main 2451 2451 P_____________ WP281996 8.14989 -177.535 15 -1 13 274
1996261N08184 1996 86 EP CP YATES 1996-09-17 18:00:00 NR 8.20000 181.800 main 2503 2503 O_____________ jtwc_wp WP281996 8.20000 -178.200 15 -1 13 274
1996261N08184 1996 86 EP CP YATES 1996-09-17 21:00:00 NR 8.24988 181.115 main 2522 2522 P_____________ WP281996 8.24988 -178.885 15 -1 14 274
1996261N08184 1996 86 EP CP YATES 1996-09-18 00:00:00 NR 8.30000 180.400 main 2555 2555 O_____________ jtwc_wp WP281996 8.30000 -179.600 15 -1 14 274
1996261N08184 1996 86 WP MM YATES 1996-09-18 03:00:00 NR 8.34990 179.657 main 2579 2579 P_____________ WP281996 8.34990 179.657 15 -1 15 274
1996261N08184 1996 86 WP MM YATES 1996-09-18 06:00:00 NR 8.40000 178.900 main 2619 2619 O_____________ jtwc_wp WP281996 8.40000 178.900 15 -1 15 274
1996261N08184 1996 86 WP MM YATES 1996-09-18 09:00:00 NR 8.44236 178.150 main 2651 2641 P_____________ WP281996 8.44236 178.150 15 -1 15 274
1996261N08184 1996 86 WP MM YATES 1996-09-18 12:00:00 NR 8.50000 177.400 main 2641 2595 O_____________ jtwc_wp WP281996 8.50000 177.400 15 -1 15 276
1996261N08184 1996 86 WP MM YATES 1996-09-18 15:00:00 NR 8.59981 176.658 main 2595 2544 P_____________ WP281996 8.59981 176.658 17 -1 15 278
1996261N08184 1996 86 WP MM YATES 1996-09-18 18:00:00 NR 8.70000 175.900 main 2544 2494 O_____________ jtwc_wp WP281996 8.70000 175.900 20 -1 16 276
1996261N08184 1996 86 WP MM YATES 1996-09-18 21:00:00 NR 8.75742 175.100 main 2495 2440 P_____________ WP281996 8.75742 175.100 20 -1 16 274
1996261N08184 1996 86 WP MM YATES 1996-09-19 00:00:00 NR 8.80000 174.300 main 2440 2393 O_____________ jtwc_wp WP281996 8.80000 174.300 20 -1 15 273
1996261N08184 1996 86 WP MM YATES 1996-09-19 03:00:00 NR 8.84980 173.542 main 2386 2351 P_____________ WP281996 8.84980 173.542 22 -1 15 274
1996261N08184 1996 86 WP MM YATES 1996-09-19 06:00:00 NR 8.90000 172.800 main 2351 2308 O_____________ jtwc_wp WP281996 8.90000 172.800 25 -1 15 274
1996261N08184 1996 86 WP MM YATES 1996-09-19 09:00:00 NR 8.94985 172.050 main 2308 2270 P_____________ WP281996 8.94985 172.050 25 -1 15 274
1996261N08184 1996 86 WP MM YATES 1996-09-19 12:00:00 NR 9.00000 171.300 main 2270 2232 O_____________ jtwc_wp WP281996 9.00000 171.300 25 -1 15 274
1996261N08184 1996 86 WP MM YATES 1996-09-19 15:00:00 NR 9.04239 170.542 main 2226 2200 P_____________ WP281996 9.04239 170.542 25 -1 15 274
1996261N08184 1996 86 WP MM YATES 1996-09-19 18:00:00 NR 9.10000 169.800 main 2200 2176 O_____________ jtwc_wp WP281996 9.10000 169.800 25 -1 15 276
1996261N08184 1996 86 WP MM YATES 1996-09-19 21:00:00 NR 9.19240 169.078 main 2176 2154 P_____________ WP281996 9.19240 169.078 25 -1 14 278
1996261N08184 1996 86 WP MM YATES 1996-09-20 00:00:00 NR 9.30000 168.400 main 2154 2140 O_____________ jtwc_wp WP281996 9.30000 168.400 25 -1 13 279
1996261N08184 1996 86 WP MM YATES 1996-09-20 03:00:00 NR 9.39982 167.785 main 2140 2127 P_____________ WP281996 9.39982 167.785 25 -1 12 280
1996261N08184 1996 86 WP MM YATES 1996-09-20 06:00:00 NR 9.50000 167.200 main 2127 2116 O_____________ jtwc_wp WP281996 9.50000 167.200 25 -1 12 279
1996261N08184 1996 86 WP MM YATES 1996-09-20 09:00:00 NR 9.59247 166.585 main 2116 2097 P_____________ WP281996 9.59247 166.585 25 -1 12 280
1996261N08184 1996 86 WP MM YATES 1996-09-20 12:00:00 NR 9.70000 166.000 main 2097 2075 O_____________ jtwc_wp WP281996 9.70000 166.000 25 -1 11 282
1996261N08184 1996 86 WP MM YATES 1996-09-20 15:00:00 NR 9.81992 165.470 main 2075 2060 P_____________ WP281996 9.81992 165.470 25 -1 10 287
1996261N08184 1996 86 WP MM YATES 1996-09-20 18:00:00 NR 10.0000 165.000 main 2062 2049 O_____________ jtwc_wp WP281996 10.0000 165.000 25 -1 10 298
1996261N08184 1996 86 WP MM YATES 1996-09-20 21:00:00 NR 10.2774 164.578 main 2059 2059 P_____________ WP281996 10.2774 164.578 25 -1 9 339
1996261N08184 1996 86 WP MM YATES 1996-09-21 00:00:00 TS 10.8400 164.680 1008 tokyo main 2109 2109 OO____________ jtwc_wp WP281996 10.6000 164.200 25 -1 11.8000 166.600 2 1008 0 0 0 11 359
1996261N08184 1996 86 WP MM YATES 1996-09-21 03:00:00 TS 11.3709 164.558 main 2155 2148 PP____________ WP281996 10.8925 163.827 25 -1 12.3279 166.018 2 1007 0 0 11 343
1996261N08184 1996 86 WP MM YATES 1996-09-21 06:00:00 TS 11.8857 164.357 1006 tokyo main 2186 2180 OO____________ jtwc_wp WP281996 11.2000 163.500 25 -1 12.8000 165.500 2 1006 0 0 0 11 339
1996261N08184 1996 86 WP MM YATES 1996-09-21 09:00:00 TS 12.3611 164.164 main 2216 2210 PP____________ WP281996 11.5424 163.242 25 -1 13.1798 165.085 2 1006 0 0 10 329
1996261N08184 1996 86 WP MM YATES 1996-09-21 12:00:00 TS 12.7000 163.850 1006 tokyo main 2223 2217 OO____________ jtwc_wp WP281996 11.9000 163.000 25 -1 13.5000 164.700 2 1006 0 0 0 9 316
1996261N08184 1996 86 WP MM YATES 1996-09-21 15:00:00 TS 13.0362 163.490 main 2224 2224 PP____________ WP281996 12.2425 162.707 25 -1 13.8299 164.272 2 1006 0 0 10 312
1996261N08184 1996 86 WP MM YATES 1996-09-21 18:00:00 TS 13.3500 163.100 1006 tokyo main 2236 2228 OO____________ jtwc_wp WP281996 12.6000 162.400 25 -1 14.1000 163.800 2 1006 0 0 0 10 308
1996261N08184 1996 86 WP MM YATES 1996-09-21 21:00:00 TS 13.6323 162.705 main 2231 2229 PP____________ WP281996 12.9849 162.122 25 -1 14.2798 163.287 2 1006 0 0 10 304
1996261N08184 1996 86 WP MM YATES 1996-09-22 00:00:00 TS 13.9000 162.250 1006 tokyo main 2237 2227 OO____________ jtwc_wp WP281996 13.4000 161.800 25 -1 14.4000 162.700 2 1006 0 0 0 11 299
1996261N08184 1996 86 WP MM YATES 1996-09-22 03:00:00 TS 14.1674 161.712 main 2231 2218 PP____________ WP281996 13.8499 161.387 25 -1 14.4848 162.037 2 1006 0 0 12 296
1996261N08184 1996 86 WP MM YATES 1996-09-22 06:00:00 TS 14.4500 161.100 1006 tokyo main 2228 2217 OO____________ jtwc_wp WP281996 14.3000 160.900 25 -1 14.6000 161.300 2 1006 0 0 0 14 296
1996261N08184 1996 86 WP MM YATES 1996-09-22 09:00:00 TS 14.7825 160.429 main 2222 2217 PP____________ WP281996 14.7374 160.373 27 -1 14.8277 160.485 2 1005 0 0 15 296
1996261N08184 1996 86 WP MM YATES 1996-09-22 12:00:00 TS 15.1000 159.750 1004 tokyo main 2222 2212 OO____________ jtwc_wp WP281996 15.1000 159.800 30 -1 15.1000 159.700 2 1004 0 0 0 14 295
1996261N08184 1996 86 WP MM YATES 1996-09-22 15:00:00 TS 15.3472 159.146 main 2209 2208 PP____________ WP281996 15.3298 159.215 32 -1 15.3645 159.077 2 1004 0 0 12 291
1996261N08184 1996 86 WP MM YATES 1996-09-22 18:00:00 TS 15.5500 158.550 1004 tokyo main 2218 2200 OO____________ jtwc_wp WP281996 15.5000 158.600 35 0 15.6000 158.500 2 1004 0 0 0 13 288
1996261N08184 1996 86 WP MM YATES 1996-09-22 21:00:00 TS 15.7407 157.878 main 2200 2196 PP____________ WP281996 15.7074 157.950 45 0 15.7740 157.806 2 1002 0 0 13 286
1996261N08184 1996 86 WP MM YATES 1996-09-23 00:00:00 TS 15.9100 157.240 1000 tokyo main 2195 2189 OOOO__________ jtwc_wp WP281996 15.9000 157.300 55 0 15.9000 157.200 2 1000 0 0 0 16.0000 157.200 1 29 1000 15.9000 157.200 TD 30 1000 12 285
1996261N08184 1996 86 WP MM YATES 1996-09-23 03:00:00 TS 16.0413 156.704 35 996 tokyo main 2189 2188 POPP__________ WP281996 16.0648 156.692 67 1 16.0000 156.800 3 35 996 0 9 60 60 0 16.1079 156.590 1 33 997 16.0103 156.650 TD 35 997 11 284
1996261N08184 1996 86 WP MM YATES 1996-09-23 06:00:00 TS 16.1786 156.079 40 994 tokyo main 2193 2179 OOOO__________ jtwc_wp WP281996 16.2000 156.100 80 1 16.2000 156.100 3 40 994 0 9 60 60 0 16.2000 156.000 2 38 995 16.1000 156.100 TS 40 994 12 281
1996261N08184 1996 86 WP MM YATES 1996-09-23 09:00:00 TS 16.2579 155.501 main 2187 2175 PPPP__________ WP281996 16.3224 155.493 97 3 16.2872 155.519 3 45 989 0 9 95 95 16.2648 155.442 2 43 990 16.1574 155.550 TS 45 989 11 276
1996261N08184 1996 86 WP MM YATES 1996-09-23 12:00:00 TS 16.3000 154.950 50 985 tokyo main 2175 2162 OOOO__________ jtwc_wp WP281996 16.4000 154.900 115 4 16.3000 155.000 4 50 985 0 9 130 130 0 16.3000 154.900 3 48 985 16.2000 155.000 STS 50 985 11 274
1996261N08184 1996 86 WP MM YATES 1996-09-23 15:00:00 TS 16.3273 154.400 main 2162 2153 PPPP__________ WP281996 16.4223 154.342 115 4 16.3149 154.450 4 55 977 0 9 140 140 16.3149 154.350 3 56 980 16.2573 154.458 STS 55 980 11 271
1996261N08184 1996 86 WP MM YATES 1996-09-23 18:00:00 TS 16.3250 153.850 60 970 tokyo main 2153 2144 OOOO__________ jtwc_wp WP281996 16.4000 153.800 115 4 16.3000 153.900 4 60 970 9 50 50 9 150 150 0 16.3000 153.800 4 64 975 16.3000 153.900 STS 60 975 11 268
1996261N08184 1996 86 WP MM YATES 1996-09-23 21:00:00 TS 16.2911 153.295 main 2144 2138 PPPP__________ WP281996 16.3573 153.257 115 4 16.2422 153.365 4 67 965 9 65 65 9 165 165 16.2499 153.250 4 66 972 16.3149 153.307 STS 65 970 11 266
1996261N08184 1996 86 WP MM YATES 1996-09-24 00:00:00 TS 16.2500 152.725 75 960 tokyo main 2137 2116 OOOO__________ jtwc_wp WP281996 16.3000 152.700 115 4 16.2000 152.800 5 75 960 9 80 80 9 180 180 0 16.2000 152.700 4 68 970 16.3000 152.700 T 70 965 11 267
1996261N08184 1996 86 WP MM YATES 1996-09-24 03:00:00 TS 16.2354 152.140 main 2114 2101 PPPP__________ WP281996 16.2499 152.108 115 4 16.2424 152.173 5 75 960 9 80 80 9 180 180 16.1921 152.180 4 68 970 16.2573 152.100 T 70 965 12 269
1996261N08184 1996 86 WP MM YATES 1996-09-24 06:00:00 TS 16.2250 151.525 75 960 tokyo main 2098 2085 OOOO__________ jtwc_wp WP281996 16.2000 151.500 115 4 16.3000 151.500 5 75 960 9 80 80 9 180 180 0 16.2000 151.600 4 68 970 16.2000 151.500 T 70 965 12 269
1996261N08184 1996 86 WP MM YATES 1996-09-24 09:00:00 TS 16.2056 150.864 main 2085 2072 PPPP__________ WP281996 16.1498 150.900 117 4 16.3150 150.785 5 75 960 9 80 80 9 170 170 16.2076 150.873 4 68 970 16.1498 150.900 T 70 965 13 268
1996261N08184 1996 86 WP MM YATES 1996-09-24 12:00:00 TS 16.1750 150.200 75 960 tokyo main 2072 2053 OOOO__________ jtwc_wp WP281996 16.1000 150.300 120 4 16.3000 150.100 5 75 960 9 80 80 9 160 160 0 16.2000 150.100 4 68 970 16.1000 150.300 T 70 965 12 266
1996261N08184 1996 86 WP MM YATES 1996-09-24 15:00:00 TS 16.1286 149.573 main 2053 2046 PPPP__________ WP281996 16.0498 149.708 122 4 16.2647 149.528 5 77 955 9 85 85 9 170 170 16.1575 149.355 4 68 970 16.0423 149.700 T 70 965 12 265
1996261N08184 1996 86 WP MM YATES 1996-09-24 18:00:00 TS 16.0750 148.975 80 950 tokyo main 2046 2030 OOOO__________ jtwc_wp WP281996 16.0000 149.100 125 4 16.2000 149.000 5 80 950 9 90 90 9 180 180 0 16.1000 148.700 4 68 970 16.0000 149.100 T 70 965 11 264
1996261N08184 1996 86 WP MM YATES 1996-09-24 21:00:00 TS 16.0191 148.413 main 2030 2028 PPPP__________ WP281996 15.9424 148.450 127 4 16.0997 148.465 5 82 945 9 95 95 9 195 195 16.0420 148.235 4 72 965 15.9923 148.500 T 72 962 11 265
1996261N08184 1996 86 WP MM YATES 1996-09-25 00:00:00 TS 15.9750 147.850 85 940 tokyo main 2028 2027 OOOO__________ jtwc_wp WP281996 15.9000 147.800 130 4 16.0000 147.900 5 85 940 9 100 100 9 210 210 0 16.0000 147.800 4 77 960 16.0000 147.900 T 75 960 11 266
1996261N08184 1996 86 WP MM YATES 1996-09-25 03:00:00 TS 15.9494 147.232 main 2016 2016 PPPP__________ WP281996 15.8849 147.170 130 4 15.9276 147.250 5 85 940 9 100 100 9 210 210 15.9851 147.215 4 77 960 15.9999 147.293 T 75 960 12 269
1996261N08184 1996 86 WP MM YATES 1996-09-25 06:00:00 TS 15.9500 146.625 85 940 tokyo main 2027 2027 OOOO__________ jtwc_wp WP281996 15.9000 146.600 130 4 15.9000 146.600 5 85 940 9 100 100 9 210 210 0 16.0000 146.600 4 77 960 16.0000 146.700 T 75 960 11 271
1996261N08184 1996 86 WP MM YATES 1996-09-25 09:00:00 TS 15.9742 146.074 main 2028 2028 PPPP__________ WP281996 15.9348 146.127 127 4 15.9274 146.013 5 85 940 9 100 100 9 210 210 16.0424 146.028 4 77 960 15.9924 146.127 T 75 960 10 274
1996261N08184 1996 86 WP MM YATES 1996-09-25 12:00:00 TS 16.0250 145.575 85 940 tokyo main 2030 2030 OOOO__________ jtwc_wp WP281996 16.0000 145.700 125 4 16.0000 145.500 5 85 940 9 100 100 9 210 210 0 16.1000 145.500 4 77 960 16.0000 145.600 T 75 960 9 277
1996261N08184 1996 86 WP MM YATES 1996-09-25 15:00:00 TS 16.0811 145.117 main 2045 2045 PPPP__________ WP281996 16.0850 145.242 125 4 16.0848 145.077 5 85 940 9 100 100 9 210 210 16.1349 145.020 4 77 960 16.0198 145.127 T 72 962 9 280
1996261N08184 1996 86 WP MM YATES 1996-09-25 18:00:00 TS 16.1750 144.700 85 940 tokyo main 2060 2060 OOOO__________ jtwc_wp WP281996 16.2000 144.800 125 4 16.2000 144.700 5 85 940 9 100 100 9 210 210 0 16.2000 144.600 4 77 960 16.1000 144.700 T 70 965 8 287
1996261N08184 1996 86 WP MM YATES 1996-09-25 21:00:00 TS 16.3149 144.305 main 2076 2039 PPPP__________ WP281996 16.3274 144.392 125 4 16.3349 144.300 5 85 940 9 100 100 9 210 210 16.3198 144.242 4 77 960 16.2774 144.285 T 70 965 8 294
1996261N08184 1996 86 WP MM YATES 1996-09-26 00:00:00 TS 16.5000 143.925 85 940 tokyo main 2039 2012 OOOO__________ jtwc_wp WP281996 16.5000 144.000 125 4 16.5000 143.900 5 85 940 9 100 100 9 210 210 0 16.5000 143.900 4 77 960 16.5000 143.900 T 70 965 8 299
1996261N08184 1996 86 WP MM YATES 1996-09-26 03:00:00 TS 16.7174 143.534 main 2002 1976 PPPP__________ WP281996 16.7349 143.600 125 4 16.6925 143.492 5 85 940 9 100 100 9 210 210 16.7500 143.508 4 77 960 16.6924 143.535 T 70 965 9 301
1996261N08184 1996 86 WP MM YATES 1996-09-26 06:00:00 TS 16.9500 143.150 85 940 tokyo main 1975 1940 OOOO__________ jtwc_wp WP281996 17.0000 143.200 125 4 16.9000 143.100 5 85 940 9 100 100 9 210 210 0 17.0000 143.100 4 77 960 16.9000 143.200 T 70 965 8 301
1996261N08184 1996 86 WP MM YATES 1996-09-26 09:00:00 TS 17.1512 142.780 main 1940 1904 PPPP__________ WP281996 17.2425 142.792 125 4 17.0849 142.742 5 87 937 9 100 100 9 210 210 17.1425 142.685 4 77 960 17.1349 142.900 T 70 965 8 302
1996261N08184 1996 86 WP MM YATES 1996-09-26 12:00:00 TS 17.3750 142.425 90 935 tokyo main 1904 1873 OOOO__________ jtwc_wp WP281996 17.5000 142.400 125 4 17.3000 142.400 5 90 935 9 100 100 9 210 210 0 17.3000 142.300 4 77 960 17.4000 142.600 T 70 965 8 307
1996261N08184 1996 86 WP MM YATES 1996-09-26 15:00:00 TS 17.6468 142.082 main 1873 1821 PPPP__________ WP281996 17.7849 142.042 120 4 17.5625 142.035 5 90 935 9 100 100 9 210 210 17.5549 141.985 4 77 960 17.6849 142.265 T 70 965 9 313
1996261N08184 1996 86 WP MM YATES 1996-09-26 18:00:00 TS 17.9750 141.750 90 935 tokyo main 1821 1779 OOOO__________ jtwc_wp WP281996 18.1000 141.700 115 4 17.9000 141.700 5 90 935 9 100 100 9 210 210 0 17.9000 141.700 4 77 960 18.0000 141.900 T 70 965 9 319
1996261N08184 1996 86 WP MM YATES 1996-09-26 21:00:00 TS 18.3580 141.434 main 1765 1710 PPPP__________ WP281996 18.4349 141.350 115 4 18.3273 141.457 5 87 937 9 100 100 9 210 210 18.3274 141.415 4 77 960 18.3424 141.515 T 70 965 10 322
1996261N08184 1996 86 WP MM YATES 1996-09-27 00:00:00 TS 18.7750 141.100 85 940 tokyo main 1710 1650 OOOO__________ jtwc_wp WP281996 18.8000 141.000 115 4 18.8000 141.200 5 85 940 9 100 100 9 210 210 0 18.8000 141.100 4 77 960 18.7000 141.100 T 70 965 11 321
1996261N08184 1996 86 WP MM YATES 1996-09-27 03:00:00 TS 19.2063 140.708 main 1650 1590 PPPP__________ WP281996 19.2074 140.650 117 4 19.2800 140.830 5 85 940 9 100 100 9 185 185 19.2875 140.715 4 77 960 19.0501 140.635 T 70 965 11 317
1996261N08184 1996 86 WP MM YATES 1996-09-27 06:00:00 TS 19.6000 140.300 85 940 tokyo main 1590 1539 OOOO__________ jtwc_wp WP281996 19.6000 140.300 120 4 19.7000 140.400 5 85 940 9 100 100 9 160 160 0 19.7000 140.300 4 77 960 19.4000 140.200 T 70 965 10 313
1996261N08184 1996 86 WP MM YATES 1996-09-27 09:00:00 TS 19.8974 139.915 main 1539 1504 PPPP__________ WP281996 19.9300 139.942 122 4 19.9800 139.942 5 85 940 9 100 100 9 160 160 19.9225 139.892 4 77 960 19.7573 139.885 T 70 965 9 308
1996261N08184 1996 86 WP MM YATES 1996-09-27 12:00:00 TS 20.1500 139.550 85 940 tokyo main 1494 1454 OOOO__________ jtwc_wp WP281996 20.2000 139.600 125 4 20.2000 139.500 5 85 940 9 100 100 9 160 160 0 20.1000 139.500 4 77 960 20.1000 139.600 T 70 965 9 308
1996261N08184 1996 86 WP MM YATES 1996-09-27 15:00:00 TS 20.4237 139.186 main 1454 1409 PPPP__________ WP281996 20.4150 139.277 125 4 20.4575 139.105 5 85 940 9 100 100 9 160 160 20.4000 139.120 4 77 960 20.4226 139.243 T 70 965 8 310
1996261N08184 1996 86 WP MM YATES 1996-09-27 18:00:00 TS 20.6750 138.875 85 940 tokyo main 1409 1379 OOOO__________ jtwc_wp WP281996 20.6000 139.000 125 4 20.7000 138.800 5 85 940 9 100 100 9 160 160 0 20.7000 138.800 4 77 960 20.7000 138.900 T 70 965 7 313
1996261N08184 1996 86 WP MM YATES 1996-09-27 21:00:00 TS 20.8843 138.652 main 1379 1349 PPPP__________ WP281996 20.7999 138.785 125 4 20.9074 138.627 5 85 940 9 100 100 9 160 160 20.9149 138.570 4 77 960 20.9149 138.627 T 72 962 5 317
1996261N08184 1996 86 WP MM YATES 1996-09-28 00:00:00 TS 21.0750 138.475 85 940 tokyo main 1349 1319 OOOO__________ jtwc_wp WP281996 21.0000 138.600 125 4 21.1000 138.500 5 85 940 9 100 100 9 160 160 0 21.1000 138.400 4 77 960 21.1000 138.400 T 75 960 5 318
1996261N08184 1996 86 WP MM YATES 1996-09-28 03:00:00 TS 21.2694 138.282 main 1319 1290 PPPP__________ WP281996 21.1925 138.392 125 4 21.3000 138.300 5 85 940 9 105 105 9 205 205 21.2924 138.250 4 77 960 21.2925 138.185 T 75 960 5 319
1996261N08184 1996 86 WP MM YATES 1996-09-28 06:00:00 TS 21.4750 138.100 85 940 tokyo main 1290 1260 OOOO__________ jtwc_wp WP281996 21.4000 138.200 125 4 21.5000 138.100 5 85 940 9 110 110 9 250 250 0 21.5000 138.100 4 77 960 21.5000 138.000 T 75 960 5 321
1996261N08184 1996 86 WP MM YATES 1996-09-28 09:00:00 TS 21.6881 137.913 main 1260 1236 PPPP__________ WP281996 21.6200 138.020 125 4 21.6700 137.920 5 85 942 9 110 110 9 250 250 21.7275 137.893 4 77 960 21.7350 137.820 T 75 960 6 328
1996261N08184 1996 86 WP MM YATES 1996-09-28 12:00:00 TS 21.9500 137.775 85 945 tokyo main 1226 1192 OOOO__________ jtwc_wp WP281996 21.9000 137.900 125 4 21.9000 137.800 5 85 945 9 110 110 9 250 250 0 22.0000 137.700 4 77 960 22.0000 137.700 T 75 960 6 342
1996261N08184 1996 86 WP MM YATES 1996-09-28 15:00:00 TS 22.2956 137.696 main 1192 1153 PPPP__________ WP281996 22.2850 137.855 122 4 22.2774 137.748 5 82 947 9 105 105 9 250 250 22.3424 137.525 4 77 960 22.2775 137.655 T 75 960 7 357
1996261N08184 1996 86 WP MM YATES 1996-09-28 18:00:00 TS 22.6750 137.725 80 950 tokyo main 1153 1136 OOOO__________ jtwc_wp WP281996 22.7000 137.900 120 4 22.7000 137.800 5 80 950 9 100 100 9 250 250 0 22.7000 137.500 4 77 960 22.6000 137.700 T 75 960 8 15
1996261N08184 1996 86 WP MM YATES 1996-09-28 21:00:00 TS 23.0195 137.900 main 1136 1110 PPPP__________ WP281996 23.0425 138.020 120 4 23.0576 137.985 5 80 950 9 100 100 9 275 225 22.9928 137.770 4 77 960 22.9850 137.827 T 75 960 8 28
1996261N08184 1996 86 WP MM YATES 1996-09-29 00:00:00 TS 23.3750 138.125 80 950 tokyo main 1110 1089 OOOO__________ jtwc_wp WP281996 23.4000 138.200 120 4 23.4000 138.200 5 80 950 9 100 100 4 300 200 0 23.3000 138.100 4 77 960 23.4000 138.000 T 75 960 8 24
1996261N08184 1996 86 WP MM YATES 1996-09-29 03:00:00 TS 23.7543 138.261 main 1086 1057 PPPP__________ WP281996 23.8275 138.385 115 4 23.7349 138.308 5 77 952 9 95 95 4 300 200 23.6698 138.208 4 72 962 23.7850 138.143 T 75 960 8 17
1996261N08184 1996 86 WP MM YATES 1996-09-29 06:00:00 TS 24.1750 138.400 75 955 tokyo main 1057 1019 OOOO__________ jtwc_wp WP281996 24.3000 138.600 110 3 24.1000 138.400 5 75 955 9 90 90 4 300 200 0 24.1000 138.300 4 68 965 24.2000 138.300 T 75 960 9 19
1996261N08184 1996 86 WP MM YATES 1996-09-29 09:00:00 TS 24.6006 138.585 main 1019 970 PPPP__________ WP281996 24.7625 138.843 107 3 24.4599 138.513 5 75 957 9 85 85 4 300 200 24.5325 138.513 4 68 965 24.6474 138.471 T 72 962 11 22
1996261N08184 1996 86 WP MM YATES 1996-09-29 12:00:00 TS 25.1500 138.825 75 960 tokyo main 960 895 OOOO__________ jtwc_wp WP281996 25.3000 139.100 105 3 25.0000 138.700 5 75 960 9 80 80 4 300 200 0 25.1000 138.800 4 68 965 25.2000 138.700 T 70 965 14 20
1996261N08184 1996 86 WP MM YATES 1996-09-29 15:00:00 TS 25.9193 139.118 main 895 823 PPPP__________ WP281996 25.9548 139.328 102 3 25.8975 138.997 5 70 965 9 70 70 4 300 200 25.9201 139.142 4 68 965 25.9049 139.005 T 67 967 17 20
1996261N08184 1996 86 WP MM YATES 1996-09-29 18:00:00 TS 26.7750 139.475 65 970 tokyo main 817 761 OOOO__________ jtwc_wp WP281996 26.7000 139.600 100 3 26.9000 139.400 5 65 970 9 60 60 4 300 200 0 26.8000 139.500 4 68 965 26.7000 139.400 T 65 970 18 22
1996261N08184 1996 86 WP MM YATES 1996-09-29 21:00:00 TS 27.5570 139.843 main 751 712 PPPP__________ WP281996 27.4847 139.941 95 2 27.7447 139.856 5 65 970 9 60 60 4 300 200 27.5066 139.735 4 66 970 27.4921 139.841 T 65 970 17 26
1996261N08184 1996 86 WP MM YATES 1996-09-30 00:00:00 TS 28.3250 140.325 65 970 tokyo main 712 644 OOOO__________ jtwc_wp WP281996 28.3000 140.400 90 2 28.5000 140.400 5 65 970 9 60 60 4 300 200 0 28.2000 140.100 4 64 975 28.3000 140.400 T 65 970 18 32
1996261N08184 1996 86 WP MM YATES 1996-09-30 03:00:00 TS 29.0957 140.927 main 644 590 PPPP__________ WP281996 29.1063 140.939 87 2 29.1563 140.963 5 62 972 9 55 55 4 260 210 29.0135 140.736 4 61 977 29.1068 141.069 T 62 972 20 39
1996261N08184 1996 86 WP MM YATES 1996-09-30 06:00:00 TS 29.8500 141.750 60 975 tokyo main 585 551 OOOO__________ jtwc_wp WP281996 29.9000 141.700 85 2 29.8000 141.700 4 60 975 9 50 50 9 220 220 0 29.8000 141.700 3 58 980 29.9000 141.900 STS 60 975 22 48
1996261N08184 1996 86 WP MM YATES 1996-09-30 09:00:00 TS 30.5871 142.841 main 550 547 PPPP__________ WP281996 30.6723 142.745 82 1 30.5724 142.709 4 60 975 9 50 50 9 210 210 30.4246 143.048 3 58 980 30.6789 142.861 STS 60 975 25 55
1996261N08184 1996 86 WP MM YATES 1996-09-30 12:00:00 TS 31.2750 144.100 60 975 tokyo main 553 553 OOOO__________ jtwc_wp WP281996 31.4000 144.000 80 1 31.3000 143.900 4 60 975 9 50 50 9 200 200 0 31.0000 144.500 3 58 980 31.4000 144.000 STS 60 975 25 58
1996261N08184 1996 86 WP MM YATES 1996-09-30 15:00:00 TS 31.9092 145.345 main 583 583 PPPP__________ WP281996 32.0937 145.298 77 1 31.8594 145.129 4 57 977 9 50 50 9 200 200 31.6395 145.660 3 53 982 32.0444 145.291 STS 57 977 25 61
1996261N08184 1996 86 WP MM YATES 1996-09-30 18:00:00 TS 32.4750 146.650 55 980 tokyo main 641 633 OOOO__________ jtwc_wp WP281996 32.7000 146.700 75 1 32.3000 146.400 4 55 980 9 50 50 9 200 200 0 32.3000 146.800 3 48 985 32.6000 146.700 STS 55 980 25 64
1996261N08184 1996 86 WP MM YATES 1996-09-30 21:00:00 TS 32.9876 148.000 main 716 716 PPPP__________ WP281996 33.1950 148.209 72 1 32.6770 147.600 4 55 980 9 50 50 9 210 210 32.9773 148.061 3 46 987 33.1010 148.128 STS 52 982 25 68
1996261N08184 1996 86 WP MM YATES 1996-10-01 00:00:00 TS 33.4071 149.407 55 980 tokyo main 817 817 OOOO__________ jtwc_wp WP281996 33.6000 149.700 70 1 33.0000 148.900 4 55 980 9 50 50 9 220 220 0 33.6000 149.500 2 44 990 33.5000 149.600 STS 50 985 25 72
1996261N08184 1996 86 WP MM YATES 1996-10-01 03:00:00 TS 33.7477 150.829 main 929 929 PPPP__________ WP281996 33.9694 151.010 67 1 33.3326 150.343 4 52 982 9 9 205 205 34.0965 151.177 2 41 991 33.7861 151.094 STS 47 987 25 76
1996261N08184 1996 86 WP MM YATES 1996-10-01 06:00:00 TS 34.0100 152.320 50 985 tokyo main 1054 1054 OOOO__________ jtwc_wp WP281996 34.3000 152.300 65 1 33.6000 152.100 4 50 985 0 9 190 190 0 34.5000 153.000 2 38 992 34.0000 152.600 TS 45 990 27 81
1996261N08184 1996 86 WP MM YATES 1996-10-01 09:00:00 TS 34.1580 154.018 main 1202 1202 PP____________ WP281996 34.6126 153.691 65 1 33.7034 154.344 4 987 0 9 2 TS 30 84
1996261N08184 1996 86 WP MM YATES 1996-10-01 12:00:00 ET 34.3500 155.950 990 tokyo main 1333 1339 OO____________ jtwc_wp WP281996 34.9000 155.200 65 1 33.8000 156.700 6 990 0 0 0 32 82
1996261N08184 1996 86 WP MM YATES 1996-10-01 15:00:00 ET 34.6075 157.819 main 1401 1401 PP____________ WP281996 35.1557 156.842 65 1 34.0594 158.796 6 991 0 0 31 80
1996261N08184 1996 86 WP MM YATES 1996-10-01 18:00:00 ET 34.9000 159.650 992 tokyo main 1458 1453 OO____________ jtwc_wp WP281996 35.4000 158.600 65 1 34.4000 160.700 6 992 0 0 0 30 79
1996261N08184 1996 86 WP MM YATES 1996-10-01 21:00:00 ET 35.1895 161.420 main 1518 1518 PP____________ WP281996 35.6342 160.452 62 0 34.7449 162.389 6 992 0 0 29 78
1996261N08184 1996 86 WP MM YATES 1996-10-02 00:00:00 ET 35.5000 163.150 992 tokyo main 1589 1583 OO____________ jtwc_wp WP281996 35.9000 162.300 60 0 35.1000 164.000 6 992 0 0 0 29 78
1996261N08184 1996 86 WP MM YATES 1996-10-02 03:00:00 ET 35.8110 164.877 main 1663 1663 PP____________ WP281996 36.2313 164.016 60 0 35.3906 165.738 6 992 0 0 29 77
1996261N08184 1996 86 WP MM YATES 1996-10-02 06:00:00 ET 36.1500 166.600 992 tokyo main 1737 1737 OO____________ jtwc_wp WP281996 36.6000 165.700 60 0 35.7000 167.500 6 992 0 0 0 29 76
1996261N08184 1996 86 WP MM YATES 1996-10-02 09:00:00 ET 36.4897 168.368 main 1820 1820 PP____________ WP281996 36.9196 167.490 60 0 36.0597 169.245 6 992 0 0 29 75
1996261N08184 1996 86 WP MM YATES 1996-10-02 12:00:00 ET 36.9000 170.100 992 tokyo main 1860 1860 OO____________ jtwc_wp WP281996 37.3000 169.200 60 0 36.5000 171.000 6 992 0 0 0 29 71
1996261N08184 1996 86 WP MM YATES 1996-10-02 15:00:00 ET 37.4172 171.745 main 1894 1894 PP____________ WP281996 37.8306 170.673 60 0 37.0037 172.817 6 988 0 0 28 67
1996261N08184 1996 86 WP MM YATES 1996-10-02 18:00:00 ET 38.0000 173.350 984 tokyo main 1932 1928 OO____________ jtwc_wp WP281996 38.4000 172.100 60 0 37.6000 174.600 6 984 0 0 0 28 66
1996261N08184 1996 86 WP MM YATES 1996-10-02 21:00:00 ET 38.5512 175.004 main 1958 1901 PP____________ WP281996 38.8412 173.682 57 0 38.2612 176.326 6 982 0 0 27 64
1996261N08184 1996 86 WP MM YATES 1996-10-03 00:00:00 ET 39.1714 176.414 980 tokyo main 1887 1777 OO____________ jtwc_wp WP281996 39.3000 175.300 55 0 39.0000 177.900 6 980 0 0 0 24 58
1996261N08184 1996 86 WP MM YATES 1996-10-03 03:00:00 ET 39.8449 177.648 main 1777 1654 PP____________ WP281996 39.8727 176.843 55 0 39.7892 179.258 6 978 0 0 24 56
1996261N08184 1996 86 WP MM YATES 1996-10-03 06:00:00 ET 40.5250 179.000 main 1650 1539 OO____________ jtwc_wp WP281996 40.5000 178.500 55 0 40.6000 180.500 6 976 0 0 0 25 59
1996261N08184 1996 86 EP CP YATES 1996-10-03 09:00:00 NR 41.1169 180.412 main 1535 1402 P_____________ WP281996 41.1169 -179.588 55 0 6 0 0 29 66
1996261N08184 1996 86 EP CP YATES 1996-10-03 12:00:00 NR 41.7000 182.500 main 1399 O_____________ jtwc_wp WP281996 41.7000 -177.500 55 0 33 69

IBTrACS Databaseについて

本データベースは、米国NOAAが公開する1842年以降の世界の熱帯低気圧のベストトラックデータアーカイブInternational Best Track Archive for Climate Stewardship (IBTrACS)を、ウェブで閲覧しやすい形式に変換したものです。

最終更新日:2021-11-26